sensor_id;sensor_type;location;lat;lon;timestamp;temperature;humidity
72591;SHT31;60625;51.212;5.952;2023-05-16T00:01:00;10.97;74.19
72591;SHT31;60625;51.212;5.952;2023-05-16T00:06:01;10.95;74.18
72591;SHT31;60625;51.212;5.952;2023-05-16T00:11:01;10.94;74.19
72591;SHT31;60625;51.212;5.952;2023-05-16T00:16:02;10.91;74.18
72591;SHT31;60625;51.212;5.952;2023-05-16T00:21:04;10.87;74.21
72591;SHT31;60625;51.212;5.952;2023-05-16T00:26:05;10.84;74.33
72591;SHT31;60625;51.212;5.952;2023-05-16T00:31:06;10.81;74.33
72591;SHT31;60625;51.212;5.952;2023-05-16T00:36:06;10.78;74.51
72591;SHT31;60625;51.212;5.952;2023-05-16T00:41:07;10.78;74.47
72591;SHT31;60625;51.212;5.952;2023-05-16T00:46:10;10.78;74.39
72591;SHT31;60625;51.212;5.952;2023-05-16T00:51:10;10.77;74.29
72591;SHT31;60625;51.212;5.952;2023-05-16T00:56:11;10.76;74.11
72591;SHT31;60625;51.212;5.952;2023-05-16T01:01:12;10.74;74.17
72591;SHT31;60625;51.212;5.952;2023-05-16T01:06:13;10.70;74.06
72591;SHT31;60625;51.212;5.952;2023-05-16T01:27:54;10.56;73.42
72591;SHT31;60625;51.212;5.952;2023-05-16T01:32:56;10.52;73.24
72591;SHT31;60625;51.212;5.952;2023-05-16T01:38:01;10.47;73.14
72591;SHT31;60625;51.212;5.952;2023-05-16T01:43:10;10.41;73.20
72591;SHT31;60625;51.212;5.952;2023-05-16T01:48:17;10.34;73.25
72591;SHT31;60625;51.212;5.952;2023-05-16T01:53:28;10.28;73.38
72591;SHT31;60625;51.212;5.952;2023-05-16T01:58:36;10.21;73.57
72591;SHT31;60625;51.212;5.952;2023-05-16T02:03:38;10.14;73.46
72591;SHT31;60625;51.212;5.952;2023-05-16T02:08:40;10.09;73.61
72591;SHT31;60625;51.212;5.952;2023-05-16T02:13:41;10.03;73.66
72591;SHT31;60625;51.212;5.952;2023-05-16T02:18:41;10.01;73.88
72591;SHT31;60625;51.212;5.952;2023-05-16T02:23:45;9.98;73.97
72591;SHT31;60625;51.212;5.952;2023-05-16T02:28:46;9.95;74.00
72591;SHT31;60625;51.212;5.952;2023-05-16T02:33:49;9.88;74.00
72591;SHT31;60625;51.212;5.952;2023-05-16T02:38:49;9.78;74.11
72591;SHT31;60625;51.212;5.952;2023-05-16T02:43:50;9.69;74.40
72591;SHT31;60625;51.212;5.952;2023-05-16T02:48:50;9.62;74.67
72591;SHT31;60625;51.212;5.952;2023-05-16T02:53:52;9.56;74.82
72591;SHT31;60625;51.212;5.952;2023-05-16T02:58:53;9.49;74.92
72591;SHT31;60625;51.212;5.952;2023-05-16T03:03:55;9.45;75.13
72591;SHT31;60625;51.212;5.952;2023-05-16T03:08:56;9.38;75.32
72591;SHT31;60625;51.212;5.952;2023-05-16T03:13:56;9.29;75.60
72591;SHT31;60625;51.212;5.952;2023-05-16T03:18:59;9.22;75.79
72591;SHT31;60625;51.212;5.952;2023-05-16T03:24:01;9.15;76.00
72591;SHT31;60625;51.212;5.952;2023-05-16T03:29:03;9.12;76.26
72591;SHT31;60625;51.212;5.952;2023-05-16T03:34:03;9.13;76.50
72591;SHT31;60625;51.212;5.952;2023-05-16T03:39:04;9.08;76.80
72591;SHT31;60625;51.212;5.952;2023-05-16T03:44:05;9.04;77.08
72591;SHT31;60625;51.212;5.952;2023-05-16T03:49:05;9.00;77.38
72591;SHT31;60625;51.212;5.952;2023-05-16T03:54:06;8.93;77.54
72591;SHT31;60625;51.212;5.952;2023-05-16T03:59:06;8.86;77.75
72591;SHT31;60625;51.212;5.952;2023-05-16T04:04:07;8.82;77.81
72591;SHT31;60625;51.212;5.952;2023-05-16T04:09:07;8.77;77.94
72591;SHT31;60625;51.212;5.952;2023-05-16T04:14:08;8.78;77.88
72591;SHT31;60625;51.212;5.952;2023-05-16T04:19:09;8.76;77.86
72591;SHT31;60625;51.212;5.952;2023-05-16T04:24:09;8.80;77.89
72591;SHT31;60625;51.212;5.952;2023-05-16T04:29:10;8.82;77.82
72591;SHT31;60625;51.212;5.952;2023-05-16T04:34:11;8.87;77.71
72591;SHT31;60625;51.212;5.952;2023-05-16T04:39:12;8.93;77.63
72591;SHT31;60625;51.212;5.952;2023-05-16T04:44:12;9.00;77.60
72591;SHT31;60625;51.212;5.952;2023-05-16T04:49:13;9.10;77.51
72591;SHT31;60625;51.212;5.952;2023-05-16T04:54:14;9.19;77.25
72591;SHT31;60625;51.212;5.952;2023-05-16T04:59:14;9.23;77.09
72591;SHT31;60625;51.212;5.952;2023-05-16T05:04:15;9.29;76.81
72591;SHT31;60625;51.212;5.952;2023-05-16T05:09:16;9.35;76.81
72591;SHT31;60625;51.212;5.952;2023-05-16T05:14:17;9.47;76.58
72591;SHT31;60625;51.212;5.952;2023-05-16T05:19:17;9.50;76.24
72591;SHT31;60625;51.212;5.952;2023-05-16T05:24:18;9.54;76.21
72591;SHT31;60625;51.212;5.952;2023-05-16T05:29:18;9.63;76.00
72591;SHT31;60625;51.212;5.952;2023-05-16T05:34:19;9.76;75.67
72591;SHT31;60625;51.212;5.952;2023-05-16T05:39:20;9.82;75.04
72591;SHT31;60625;51.212;5.952;2023-05-16T05:44:20;9.85;75.00
72591;SHT31;60625;51.212;5.952;2023-05-16T05:49:20;9.99;74.76
72591;SHT31;60625;51.212;5.952;2023-05-16T05:54:22;10.09;74.25
72591;SHT31;60625;51.212;5.952;2023-05-16T05:59:24;10.15;74.13
72591;SHT31;60625;51.212;5.952;2023-05-16T06:04:25;10.24;73.90
72591;SHT31;60625;51.212;5.952;2023-05-16T06:09:25;10.24;73.81
72591;SHT31;60625;51.212;5.952;2023-05-16T06:14:26;10.35;73.55
72591;SHT31;60625;51.212;5.952;2023-05-16T06:19:26;10.42;73.11
72591;SHT31;60625;51.212;5.952;2023-05-16T06:24:27;10.46;73.17
72591;SHT31;60625;51.212;5.952;2023-05-16T06:29:28;10.61;73.07
72591;SHT31;60625;51.212;5.952;2023-05-16T06:34:29;10.70;72.64
72591;SHT31;60625;51.212;5.952;2023-05-16T06:39:31;10.82;72.01
72591;SHT31;60625;51.212;5.952;2023-05-16T06:44:31;10.88;70.46
72591;SHT31;60625;51.212;5.952;2023-05-16T06:49:32;11.01;70.39
72591;SHT31;60625;51.212;5.952;2023-05-16T06:54:33;11.18;69.44
72591;SHT31;60625;51.212;5.952;2023-05-16T06:59:34;11.38;68.81
72591;SHT31;60625;51.212;5.952;2023-05-16T07:04:35;11.60;68.13
72591;SHT31;60625;51.212;5.952;2023-05-16T07:09:37;11.89;67.51
72591;SHT31;60625;51.212;5.952;2023-05-16T07:14:37;12.10;65.22
72591;SHT31;60625;51.212;5.952;2023-05-16T07:19:37;12.24;64.60
72591;SHT31;60625;51.212;5.952;2023-05-16T07:24:38;12.29;64.02
72591;SHT31;60625;51.212;5.952;2023-05-16T07:29:38;12.40;64.18
72591;SHT31;60625;51.212;5.952;2023-05-16T07:34:40;12.35;62.42
72591;SHT31;60625;51.212;5.952;2023-05-16T07:39:40;12.33;63.58
72591;SHT31;60625;51.212;5.952;2023-05-16T07:44:41;12.40;63.17
72591;SHT31;60625;51.212;5.952;2023-05-16T07:49:42;12.43;62.56
72591;SHT31;60625;51.212;5.952;2023-05-16T07:54:42;12.64;63.06
72591;SHT31;60625;51.212;5.952;2023-05-16T07:59:45;13.04;61.37
72591;SHT31;60625;51.212;5.952;2023-05-16T08:04:46;13.38;60.69
72591;SHT31;60625;51.212;5.952;2023-05-16T08:09:48;13.75;60.09
72591;SHT31;60625;51.212;5.952;2023-05-16T08:14:48;13.64;58.85
72591;SHT31;60625;51.212;5.952;2023-05-16T08:19:49;13.47;59.08
72591;SHT31;60625;51.212;5.952;2023-05-16T08:24:49;13.72;59.50
72591;SHT31;60625;51.212;5.952;2023-05-16T08:29:50;14.18;57.74
72591;SHT31;60625;51.212;5.952;2023-05-16T08:34:50;14.18;56.33
72591;SHT31;60625;51.212;5.952;2023-05-16T08:39:51;13.78;55.67
72591;SHT31;60625;51.212;5.952;2023-05-16T08:44:51;13.55;56.42
72591;SHT31;60625;51.212;5.952;2023-05-16T08:49:52;13.56;56.02
72591;SHT31;60625;51.212;5.952;2023-05-16T08:54:58;13.55;55.59
72591;SHT31;60625;51.212;5.952;2023-05-16T09:00:07;13.66;56.17
72591;SHT31;60625;51.212;5.952;2023-05-16T09:05:13;14.04;56.13
72591;SHT31;60625;51.212;5.952;2023-05-16T09:10:14;14.22;55.20
72591;SHT31;60625;51.212;5.952;2023-05-16T09:15:16;14.17;55.29
72591;SHT31;60625;51.212;5.952;2023-05-16T09:20:18;14.13;55.07
72591;SHT31;60625;51.212;5.952;2023-05-16T09:25:21;14.39;55.06
72591;SHT31;60625;51.212;5.952;2023-05-16T09:30:26;14.83;52.27
72591;SHT31;60625;51.212;5.952;2023-05-16T09:35:30;15.02;51.24
72591;SHT31;60625;51.212;5.952;2023-05-16T09:40:31;15.14;51.13
72591;SHT31;60625;51.212;5.952;2023-05-16T09:45:32;15.40;50.79
72591;SHT31;60625;51.212;5.952;2023-05-16T09:50:34;15.55;49.97
72591;SHT31;60625;51.212;5.952;2023-05-16T09:55:36;15.64;49.29
72591;SHT31;60625;51.212;5.952;2023-05-16T10:00:37;15.51;47.88
72591;SHT31;60625;51.212;5.952;2023-05-16T10:05:39;15.28;47.40
72591;SHT31;60625;51.212;5.952;2023-05-16T10:10:40;15.23;48.67
72591;SHT31;60625;51.212;5.952;2023-05-16T10:15:41;15.06;48.34
72591;SHT31;60625;51.212;5.952;2023-05-16T10:20:43;15.04;48.88
72591;SHT31;60625;51.212;5.952;2023-05-16T10:25:48;15.41;49.44
72591;SHT31;60625;51.212;5.952;2023-05-16T10:30:49;15.38;48.51
72591;SHT31;60625;51.212;5.952;2023-05-16T10:35:50;15.19;47.99
72591;SHT31;60625;51.212;5.952;2023-05-16T10:40:51;15.07;48.88
72591;SHT31;60625;51.212;5.952;2023-05-16T10:45:53;15.34;49.53
72591;SHT31;60625;51.212;5.952;2023-05-16T10:56:22;16.16;47.88
72591;SHT31;60625;51.212;5.952;2023-05-16T11:01:26;16.02;48.90
72591;SHT31;60625;51.212;5.952;2023-05-16T11:16:49;15.47;49.85
72591;SHT31;60625;51.212;5.952;2023-05-16T11:27:10;15.87;49.17
72591;SHT31;60625;51.212;5.952;2023-05-16T11:32:21;16.28;47.15
72591;SHT31;60625;51.212;5.952;2023-05-16T11:37:23;16.68;46.99
72591;SHT31;60625;51.212;5.952;2023-05-16T11:42:23;16.72;46.33
72591;SHT31;60625;51.212;5.952;2023-05-16T11:47:25;16.83;44.03
72591;SHT31;60625;51.212;5.952;2023-05-16T11:52:26;16.91;43.37
72591;SHT31;60625;51.212;5.952;2023-05-16T11:57:27;16.82;43.51
72591;SHT31;60625;51.212;5.952;2023-05-16T12:02:27;16.56;42.44
72591;SHT31;60625;51.212;5.952;2023-05-16T12:07:29;16.39;43.42
72591;SHT31;60625;51.212;5.952;2023-05-16T12:12:30;16.54;44.10
72591;SHT31;60625;51.212;5.952;2023-05-16T12:17:31;16.88;43.10
72591;SHT31;60625;51.212;5.952;2023-05-16T12:22:33;17.06;42.56
72591;SHT31;60625;51.212;5.952;2023-05-16T12:27:34;17.00;42.99
72591;SHT31;60625;51.212;5.952;2023-05-16T12:32:38;16.88;41.71
72591;SHT31;60625;51.212;5.952;2023-05-16T12:37:39;17.27;41.75
72591;SHT31;60625;51.212;5.952;2023-05-16T12:42:43;17.69;40.20
72591;SHT31;60625;51.212;5.952;2023-05-16T12:47:44;17.83;38.92
72591;SHT31;60625;51.212;5.952;2023-05-16T12:52:46;17.50;38.76
72591;SHT31;60625;51.212;5.952;2023-05-16T12:57:51;17.23;38.75
72591;SHT31;60625;51.212;5.952;2023-05-16T13:02:52;17.37;40.10
72591;SHT31;60625;51.212;5.952;2023-05-16T13:07:52;17.39;39.54
72591;SHT31;60625;51.212;5.952;2023-05-16T13:12:53;17.28;39.04
72591;SHT31;60625;51.212;5.952;2023-05-16T13:17:57;17.08;39.47
72591;SHT31;60625;51.212;5.952;2023-05-16T13:22:57;16.94;40.92
72591;SHT31;60625;51.212;5.952;2023-05-16T13:27:58;16.89;40.94
72591;SHT31;60625;51.212;5.952;2023-05-16T13:32:58;16.84;42.53
72591;SHT31;60625;51.212;5.952;2023-05-16T13:37:59;16.77;42.15
72591;SHT31;60625;51.212;5.952;2023-05-16T13:42:59;16.51;43.31
72591;SHT31;60625;51.212;5.952;2023-05-16T13:48:00;16.56;43.37
72591;SHT31;60625;51.212;5.952;2023-05-16T13:53:01;16.65;44.15
72591;SHT31;60625;51.212;5.952;2023-05-16T13:58:01;16.82;44.02
72591;SHT31;60625;51.212;5.952;2023-05-16T14:03:02;16.82;43.45
72591;SHT31;60625;51.212;5.952;2023-05-16T14:08:02;16.83;43.76
72591;SHT31;60625;51.212;5.952;2023-05-16T14:13:03;16.89;44.59
72591;SHT31;60625;51.212;5.952;2023-05-16T14:18:04;16.88;43.69
72591;SHT31;60625;51.212;5.952;2023-05-16T14:23:05;16.69;43.83
72591;SHT31;60625;51.212;5.952;2023-05-16T14:28:06;16.66;44.54
72591;SHT31;60625;51.212;5.952;2023-05-16T14:33:06;16.72;45.12
72591;SHT31;60625;51.212;5.952;2023-05-16T14:38:07;16.76;44.65
72591;SHT31;60625;51.212;5.952;2023-05-16T14:43:07;16.70;45.10
72591;SHT31;60625;51.212;5.952;2023-05-16T14:48:08;16.57;44.91
72591;SHT31;60625;51.212;5.952;2023-05-16T14:53:08;16.53;45.29
72591;SHT31;60625;51.212;5.952;2023-05-16T14:58:08;16.51;45.22
72591;SHT31;60625;51.212;5.952;2023-05-16T15:03:09;16.48;45.67
72591;SHT31;60625;51.212;5.952;2023-05-16T15:08:10;16.37;46.13
72591;SHT31;60625;51.212;5.952;2023-05-16T15:13:10;16.29;46.83
72591;SHT31;60625;51.212;5.952;2023-05-16T15:18:11;16.20;45.79
72591;SHT31;60625;51.212;5.952;2023-05-16T15:23:11;16.12;46.73
72591;SHT31;60625;51.212;5.952;2023-05-16T15:28:12;16.19;46.83
72591;SHT31;60625;51.212;5.952;2023-05-16T15:33:12;16.22;46.67
72591;SHT31;60625;51.212;5.952;2023-05-16T15:38:14;16.14;46.28
72591;SHT31;60625;51.212;5.952;2023-05-16T15:43:14;16.17;46.99
72591;SHT31;60625;51.212;5.952;2023-05-16T15:48:15;16.24;47.22
72591;SHT31;60625;51.212;5.952;2023-05-16T15:53:15;16.23;47.11
72591;SHT31;60625;51.212;5.952;2023-05-16T15:58:16;16.19;47.37
72591;SHT31;60625;51.212;5.952;2023-05-16T16:03:17;16.14;47.15
72591;SHT31;60625;51.212;5.952;2023-05-16T16:08:17;16.12;48.08
72591;SHT31;60625;51.212;5.952;2023-05-16T16:13:19;16.01;47.53
72591;SHT31;60625;51.212;5.952;2023-05-16T16:18:20;15.87;47.63
72591;SHT31;60625;51.212;5.952;2023-05-16T16:23:21;15.73;48.08
72591;SHT31;60625;51.212;5.952;2023-05-16T16:28:22;15.63;48.30
72591;SHT31;60625;51.212;5.952;2023-05-16T16:33:22;15.55;48.79
72591;SHT31;60625;51.212;5.952;2023-05-16T16:38:23;15.52;49.38
72591;SHT31;60625;51.212;5.952;2023-05-16T16:43:23;15.43;49.37
72591;SHT31;60625;51.212;5.952;2023-05-16T16:48:24;15.42;49.73
72591;SHT31;60625;51.212;5.952;2023-05-16T16:53:25;15.28;49.14
72591;SHT31;60625;51.212;5.952;2023-05-16T16:58:25;15.14;49.88
72591;SHT31;60625;51.212;5.952;2023-05-16T17:03:26;15.07;49.96
72591;SHT31;60625;51.212;5.952;2023-05-16T17:08:26;15.01;50.19
72591;SHT31;60625;51.212;5.952;2023-05-16T17:13:27;14.95;50.38
72591;SHT31;60625;51.212;5.952;2023-05-16T17:18:32;14.91;50.94
72591;SHT31;60625;51.212;5.952;2023-05-16T17:23:35;14.96;51.72
72591;SHT31;60625;51.212;5.952;2023-05-16T17:28:35;15.01;51.85
72591;SHT31;60625;51.212;5.952;2023-05-16T17:33:36;15.03;51.74
72591;SHT31;60625;51.212;5.952;2023-05-16T17:38:37;14.98;51.65
72591;SHT31;60625;51.212;5.952;2023-05-16T17:43:37;14.95;51.69
72591;SHT31;60625;51.212;5.952;2023-05-16T17:48:38;14.89;52.20
72591;SHT31;60625;51.212;5.952;2023-05-16T17:53:38;14.85;52.38
72591;SHT31;60625;51.212;5.952;2023-05-16T17:58:39;14.82;52.12
72591;SHT31;60625;51.212;5.952;2023-05-16T18:03:39;14.78;53.37
72591;SHT31;60625;51.212;5.952;2023-05-16T18:08:42;14.76;53.83
72591;SHT31;60625;51.212;5.952;2023-05-16T18:13:42;14.70;54.41
72591;SHT31;60625;51.212;5.952;2023-05-16T18:18:44;14.65;53.56
72591;SHT31;60625;51.212;5.952;2023-05-16T18:23:45;14.60;53.81
72591;SHT31;60625;51.212;5.952;2023-05-16T18:28:46;14.55;53.62
72591;SHT31;60625;51.212;5.952;2023-05-16T18:33:47;14.50;54.13
72591;SHT31;60625;51.212;5.952;2023-05-16T18:38:47;14.45;54.06
72591;SHT31;60625;51.212;5.952;2023-05-16T18:43:48;14.39;54.06
72591;SHT31;60625;51.212;5.952;2023-05-16T18:48:48;14.31;54.55
72591;SHT31;60625;51.212;5.952;2023-05-16T18:53:49;14.27;55.08
72591;SHT31;60625;51.212;5.952;2023-05-16T18:58:49;14.26;55.51
72591;SHT31;60625;51.212;5.952;2023-05-16T19:03:50;14.21;56.01
72591;SHT31;60625;51.212;5.952;2023-05-16T19:08:51;14.16;55.75
72591;SHT31;60625;51.212;5.952;2023-05-16T19:13:51;14.11;55.97
72591;SHT31;60625;51.212;5.952;2023-05-16T19:18:52;14.06;56.35
72591;SHT31;60625;51.212;5.952;2023-05-16T19:23:52;14.03;56.53
72591;SHT31;60625;51.212;5.952;2023-05-16T19:28:53;13.98;56.42
72591;SHT31;60625;51.212;5.952;2023-05-16T19:33:53;13.93;56.59
72591;SHT31;60625;51.212;5.952;2023-05-16T19:38:54;13.88;56.55
72591;SHT31;60625;51.212;5.952;2023-05-16T19:43:54;13.79;56.63
72591;SHT31;60625;51.212;5.952;2023-05-16T19:48:55;13.71;56.92
72591;SHT31;60625;51.212;5.952;2023-05-16T19:53:55;13.63;57.35
72591;SHT31;60625;51.212;5.952;2023-05-16T19:58:56;13.55;58.21
72591;SHT31;60625;51.212;5.952;2023-05-16T20:03:56;13.49;58.36
72591;SHT31;60625;51.212;5.952;2023-05-16T20:08:57;13.44;58.84
72591;SHT31;60625;51.212;5.952;2023-05-16T20:13:57;13.39;59.12
72591;SHT31;60625;51.212;5.952;2023-05-16T20:18:59;13.30;59.06
72591;SHT31;60625;51.212;5.952;2023-05-16T20:23:59;13.19;59.60
72591;SHT31;60625;51.212;5.952;2023-05-16T20:29:00;13.10;60.10
72591;SHT31;60625;51.212;5.952;2023-05-16T20:34:00;13.02;60.47
72591;SHT31;60625;51.212;5.952;2023-05-16T20:39:01;12.98;60.79
72591;SHT31;60625;51.212;5.952;2023-05-16T20:44:02;12.95;60.83
72591;SHT31;60625;51.212;5.952;2023-05-16T20:49:03;12.92;61.30
72591;SHT31;60625;51.212;5.952;2023-05-16T20:54:03;12.89;61.23
72591;SHT31;60625;51.212;5.952;2023-05-16T20:59:03;12.83;61.56
72591;SHT31;60625;51.212;5.952;2023-05-16T21:04:04;12.71;61.75
72591;SHT31;60625;51.212;5.952;2023-05-16T21:09:05;12.65;62.28
72591;SHT31;60625;51.212;5.952;2023-05-16T21:14:05;12.59;62.65
72591;SHT31;60625;51.212;5.952;2023-05-16T21:19:06;12.53;62.78
72591;SHT31;60625;51.212;5.952;2023-05-16T21:24:06;12.46;63.09
72591;SHT31;60625;51.212;5.952;2023-05-16T21:29:07;12.40;63.56
72591;SHT31;60625;51.212;5.952;2023-05-16T21:34:07;12.39;63.98
72591;SHT31;60625;51.212;5.952;2023-05-16T21:39:08;12.40;64.15
72591;SHT31;60625;51.212;5.952;2023-05-16T21:44:09;12.38;64.31
72591;SHT31;60625;51.212;5.952;2023-05-16T21:49:16;12.30;64.63
72591;SHT31;60625;51.212;5.952;2023-05-16T21:54:16;12.23;65.07
72591;SHT31;60625;51.212;5.952;2023-05-16T21:59:16;12.18;65.36
72591;SHT31;60625;51.212;5.952;2023-05-16T22:04:17;12.16;65.40
72591;SHT31;60625;51.212;5.952;2023-05-16T22:09:17;12.08;65.61
72591;SHT31;60625;51.212;5.952;2023-05-16T22:14:18;11.99;66.05
72591;SHT31;60625;51.212;5.952;2023-05-16T22:19:18;11.90;66.45
72591;SHT31;60625;51.212;5.952;2023-05-16T22:24:19;11.81;66.82
72591;SHT31;60625;51.212;5.952;2023-05-16T22:29:19;11.73;67.26
72591;SHT31;60625;51.212;5.952;2023-05-16T22:34:20;11.63;67.64
72591;SHT31;60625;51.212;5.952;2023-05-16T22:39:20;11.53;68.14
72591;SHT31;60625;51.212;5.952;2023-05-16T22:44:21;11.41;68.72
72591;SHT31;60625;51.212;5.952;2023-05-16T22:49:21;11.29;69.39
72591;SHT31;60625;51.212;5.952;2023-05-16T22:54:22;11.19;69.96
72591;SHT31;60625;51.212;5.952;2023-05-16T22:59:22;11.11;70.36
72591;SHT31;60625;51.212;5.952;2023-05-16T23:04:22;11.03;70.76
72591;SHT31;60625;51.212;5.952;2023-05-16T23:09:23;10.96;71.02
72591;SHT31;60625;51.212;5.952;2023-05-16T23:14:24;10.88;71.42
72591;SHT31;60625;51.212;5.952;2023-05-16T23:19:25;10.79;71.72
72591;SHT31;60625;51.212;5.952;2023-05-16T23:24:25;10.73;71.95
72591;SHT31;60625;51.212;5.952;2023-05-16T23:29:25;10.63;72.26
72591;SHT31;60625;51.212;5.952;2023-05-16T23:34:26;10.58;72.46
72591;SHT31;60625;51.212;5.952;2023-05-16T23:39:26;10.52;72.85
72591;SHT31;60625;51.212;5.952;2023-05-16T23:44:27;10.42;73.03
72591;SHT31;60625;51.212;5.952;2023-05-16T23:49:27;10.31;73.42
72591;SHT31;60625;51.212;5.952;2023-05-16T23:54:28;10.20;73.80
72591;SHT31;60625;51.212;5.952;2023-05-16T23:59:28;10.13;73.99
